createdAt,value
2024-01-30T00:00:47.548Z,12.82
2024-01-30T00:03:14.140Z,10.07
2024-01-30T00:05:41.368Z,7.68
2024-01-30T00:08:07.930Z,8.95
2024-01-30T00:10:34.519Z,15.52
2024-01-30T00:13:01.056Z,10.43
2024-01-30T00:15:27.702Z,11.02
2024-01-30T00:17:54.405Z,11.18
2024-01-30T00:20:22.102Z,8.68
2024-01-30T00:22:48.722Z,7.15
2024-01-30T00:25:15.778Z,9.15
2024-01-30T00:27:42.482Z,8.40
2024-01-30T00:30:10.780Z,9.90
2024-01-30T00:32:38.619Z,6.72
2024-01-30T00:35:05.700Z,8.23
2024-01-30T00:37:32.946Z,9.23
2024-01-30T00:39:59.553Z,7.82
2024-01-30T00:42:26.543Z,9.10
2024-01-30T00:44:53.124Z,7.15
2024-01-30T00:47:19.697Z,9.55
2024-01-30T00:49:47.140Z,9.57
2024-01-30T00:52:13.848Z,9.40
2024-01-30T00:54:40.429Z,9.23
2024-01-30T00:57:07.025Z,10.45
2024-01-30T00:59:33.504Z,10.93
2024-01-30T01:02:00.679Z,9.50
2024-01-30T01:04:28.027Z,8.50
2024-01-30T01:06:54.922Z,7.32
2024-01-30T01:09:21.472Z,7.72
2024-01-30T01:11:48.349Z,9.30
2024-01-30T01:14:14.895Z,8.55
2024-01-30T01:16:41.473Z,7.43
2024-01-30T01:19:08.208Z,8.30
2024-01-30T01:21:34.922Z,6.13
2024-01-30T01:24:01.430Z,8.40
2024-01-30T01:26:27.911Z,5.70
2024-01-30T01:28:54.566Z,6.70
2024-01-30T01:31:24.091Z,6.60
2024-01-30T01:33:50.765Z,6.15
2024-01-30T01:36:17.368Z,6.82
2024-01-30T01:38:45.184Z,8.05
2024-01-30T01:41:11.777Z,6.38
2024-01-30T01:43:40.263Z,6.63
2024-01-30T01:46:08.245Z,7.07
2024-01-30T01:51:01.942Z,5.63
2024-01-30T01:53:29.009Z,7.70
2024-01-30T01:55:56.021Z,5.30
2024-01-30T01:58:23.581Z,7.43
2024-01-30T02:00:51.183Z,7.93
2024-01-30T02:03:19.363Z,6.35
2024-01-30T02:05:46.502Z,6.72
2024-01-30T02:08:13.272Z,6.28
2024-01-30T02:10:39.974Z,6.30
2024-01-30T02:13:06.564Z,7.07
2024-01-30T02:15:33.252Z,6.90
2024-01-30T02:17:59.856Z,7.05
2024-01-30T02:20:27.897Z,5.57
2024-01-30T02:22:55.527Z,7.45
2024-01-30T02:25:22.206Z,9.10
2024-01-30T02:27:48.963Z,7.28
2024-01-30T02:30:15.473Z,7.38
2024-01-30T02:32:42.038Z,10.05
2024-01-30T02:35:08.548Z,10.55
2024-01-30T02:37:35.190Z,9.85
2024-01-30T02:40:01.853Z,7.20
2024-01-30T02:42:28.614Z,7.47
2024-01-30T02:44:55.189Z,7.15
2024-01-30T02:47:21.760Z,11.00
2024-01-30T02:49:48.965Z,5.75
2024-01-30T02:52:15.841Z,8.48
2024-01-30T02:54:43.438Z,6.78
2024-01-30T02:57:09.959Z,7.05
2024-01-30T02:59:37.410Z,7.75
2024-01-30T03:02:04.141Z,6.65
2024-01-30T03:04:31.446Z,7.90
2024-01-30T03:06:58.172Z,6.25
2024-01-30T03:09:25.405Z,5.90
2024-01-30T03:11:51.995Z,5.97
2024-01-30T03:14:18.580Z,6.55
2024-01-30T03:16:45.067Z,7.22
2024-01-30T03:19:11.720Z,7.88
2024-01-30T03:21:38.381Z,6.40
2024-01-30T03:24:05.298Z,5.57
2024-01-30T03:26:31.869Z,6.82
2024-01-30T03:28:58.432Z,6.68
2024-01-30T03:31:25.089Z,7.35
2024-01-30T03:33:51.835Z,6.93
2024-01-30T03:36:18.467Z,5.10
2024-01-30T03:38:45.256Z,6.40
2024-01-30T03:41:11.898Z,6.53
2024-01-30T03:43:39.420Z,7.38
2024-01-30T03:46:06.027Z,6.95
2024-01-30T03:48:32.596Z,7.15
2024-01-30T03:50:59.326Z,6.07
2024-01-30T03:53:25.927Z,8.13
2024-01-30T03:55:52.407Z,6.80
2024-01-30T03:58:19.035Z,8.27
2024-01-30T04:00:45.939Z,7.00
2024-01-30T04:03:12.724Z,5.25
2024-01-30T04:05:39.303Z,11.98
2024-01-30T04:08:06.009Z,6.97
2024-01-30T04:10:32.635Z,6.55
2024-01-30T04:12:59.328Z,6.00
2024-01-30T04:15:25.969Z,5.90
2024-01-30T04:17:52.795Z,6.15
2024-01-30T04:20:19.591Z,5.82
2024-01-30T04:22:46.592Z,6.45
2024-01-30T04:25:14.214Z,5.95
2024-01-30T04:27:40.823Z,6.75
2024-01-30T04:30:07.987Z,6.95
2024-01-30T04:32:34.629Z,5.22
2024-01-30T04:35:01.346Z,6.63
2024-01-30T04:37:28.025Z,6.47
2024-01-30T04:39:54.808Z,6.80
2024-01-30T04:42:21.345Z,5.97
2024-01-30T04:44:47.961Z,7.07
2024-01-30T04:47:14.542Z,5.93
2024-01-30T04:49:41.718Z,7.85
2024-01-30T04:52:08.821Z,6.13
2024-01-30T04:54:36.128Z,5.53
2024-01-30T04:57:03.504Z,5.55
2024-01-30T04:59:30.061Z,5.25
2024-01-30T05:01:56.843Z,5.28
2024-01-30T05:04:23.720Z,4.68
2024-01-30T05:06:50.448Z,5.97
2024-01-30T05:09:17.045Z,6.07
2024-01-30T05:11:43.639Z,5.50
2024-01-30T05:14:10.636Z,5.75
2024-01-30T05:16:37.203Z,5.93
2024-01-30T05:19:04.154Z,5.30
2024-01-30T05:21:30.761Z,6.07
2024-01-30T05:23:57.344Z,7.03
2024-01-30T05:26:24.203Z,5.88
2024-01-30T05:28:50.911Z,6.90
2024-01-30T05:31:17.502Z,5.72
2024-01-30T05:33:44.404Z,6.25
2024-01-30T05:36:13.442Z,8.27
2024-01-30T05:38:40.493Z,5.72
2024-01-30T05:41:07.150Z,6.22
2024-01-30T05:43:33.703Z,6.75
2024-01-30T05:46:00.282Z,8.35
2024-01-30T05:48:26.782Z,8.32
2024-01-30T05:50:53.667Z,8.13
2024-01-30T05:53:20.267Z,8.85
2024-01-30T05:55:47.226Z,7.93
2024-01-30T05:58:13.749Z,7.55
2024-01-30T06:00:40.517Z,7.03
2024-01-30T06:03:07.135Z,6.78
2024-01-30T06:05:33.714Z,6.93
2024-01-30T06:08:00.412Z,9.50
2024-01-30T06:10:27.089Z,8.90
2024-01-30T06:12:53.822Z,8.75
2024-01-30T06:15:20.324Z,8.00
2024-01-30T06:17:46.975Z,8.20
2024-01-30T06:20:13.625Z,6.90
2024-01-30T06:22:40.238Z,7.43
2024-01-30T06:25:07.056Z,6.40
2024-01-30T06:27:33.677Z,5.07
2024-01-30T06:30:00.236Z,7.47
2024-01-30T06:32:28.679Z,6.70
2024-01-30T06:34:55.299Z,10.43
2024-01-30T06:37:22.358Z,8.88
2024-01-30T06:39:48.940Z,9.05
2024-01-30T06:42:15.516Z,8.10
2024-01-30T06:44:42.364Z,8.85
2024-01-30T06:47:08.895Z,9.05
2024-01-30T06:49:36.162Z,13.23
2024-01-30T06:52:02.930Z,11.23
2024-01-30T06:54:29.684Z,18.73
2024-01-30T06:56:56.248Z,14.90
2024-01-30T06:59:22.824Z,11.77
2024-01-30T07:01:51.379Z,15.05
2024-01-30T07:04:19.238Z,22.90
2024-01-30T07:06:46.093Z,15.40
2024-01-30T07:09:13.437Z,11.38
2024-01-30T07:11:40.371Z,8.60
2024-01-30T07:14:07.011Z,10.57
2024-01-30T07:16:33.566Z,6.80
2024-01-30T07:19:00.221Z,9.75
2024-01-30T07:21:29.392Z,6.82
2024-01-30T07:23:56.656Z,7.07
2024-01-30T07:26:23.683Z,8.20
2024-01-30T07:28:51.309Z,11.05
2024-01-30T07:31:18.110Z,9.95
2024-01-30T07:33:44.818Z,8.15
2024-01-30T07:36:11.756Z,7.75
2024-01-30T07:38:38.338Z,6.75
2024-01-30T07:41:04.988Z,9.18
2024-01-30T07:43:31.625Z,6.45
2024-01-30T07:45:58.353Z,9.18
2024-01-30T07:48:25.027Z,7.28
2024-01-30T07:50:51.697Z,6.45
2024-01-30T07:53:18.341Z,5.55
2024-01-30T07:55:47.935Z,6.80
2024-01-30T07:58:14.773Z,6.68
2024-01-30T08:00:41.516Z,6.72
2024-01-30T08:03:08.122Z,8.20
2024-01-30T08:05:34.843Z,7.00
2024-01-30T08:08:01.589Z,7.35
2024-01-30T08:10:28.243Z,7.43
2024-01-30T08:12:54.888Z,6.22
2024-01-30T08:15:21.550Z,5.78
2024-01-30T08:17:48.105Z,6.00
2024-01-30T08:20:15.194Z,7.80
2024-01-30T08:22:42.180Z,6.03
2024-01-30T08:25:09.634Z,5.40
2024-01-30T08:27:36.727Z,5.68
2024-01-30T08:30:04.011Z,6.28
2024-01-30T08:32:31.048Z,7.07
2024-01-30T08:34:57.706Z,5.75
2024-01-30T08:37:26.518Z,7.35
2024-01-30T08:39:53.685Z,5.68
2024-01-30T08:42:24.100Z,5.07
2024-01-30T08:44:52.612Z,8.02
2024-01-30T08:47:20.332Z,5.53
2024-01-30T08:49:47.123Z,6.32
2024-01-30T08:52:14.377Z,6.65
2024-01-30T08:54:40.980Z,7.72
2024-01-30T08:57:07.592Z,5.95
2024-01-30T08:59:34.903Z,6.45
2024-01-30T09:02:11.285Z,5.88
2024-01-30T09:04:39.508Z,7.57
2024-01-30T09:07:10.918Z,5.80
2024-01-30T09:09:44.020Z,5.68
2024-01-30T09:12:12.982Z,4.72
2024-01-30T09:14:41.230Z,9.15
2024-01-30T09:19:34.763Z,4.50
2024-01-30T09:22:01.522Z,4.85
2024-01-30T09:24:28.294Z,5.88
2024-01-30T09:26:54.949Z,4.90
2024-01-30T09:29:22.304Z,4.88
2024-01-30T09:31:49.046Z,5.40
2024-01-30T09:34:15.862Z,5.15
2024-01-30T09:36:42.519Z,5.65
2024-01-30T09:39:09.196Z,9.35
2024-01-30T09:41:46.602Z,5.68
2024-01-30T09:44:13.614Z,5.63
2024-01-30T09:46:40.179Z,6.07
2024-01-30T09:49:07.693Z,11.45
2024-01-30T09:51:35.198Z,5.47
2024-01-30T09:54:04.142Z,8.63
2024-01-30T09:56:30.874Z,6.97
2024-01-30T09:58:57.482Z,6.28
2024-01-30T10:01:24.462Z,6.10
2024-01-30T10:03:53.320Z,7.10
2024-01-30T10:06:23.190Z,4.30
2024-01-30T10:08:50.750Z,6.38
2024-01-30T10:11:17.256Z,6.57
2024-01-30T10:13:43.877Z,7.30
2024-01-30T10:16:10.467Z,13.23
2024-01-30T10:18:37.264Z,15.35
2024-01-30T10:21:03.955Z,17.30
2024-01-30T10:23:35.473Z,12.32
2024-01-30T10:26:05.081Z,8.00
2024-01-30T10:28:31.856Z,8.60
2024-01-30T10:31:02.847Z,11.20
2024-01-30T10:33:32.190Z,8.32
2024-01-30T10:36:06.251Z,5.13
2024-01-30T10:38:33.733Z,5.65
2024-01-30T10:41:03.118Z,5.20
2024-01-30T10:43:42.562Z,7.28
2024-01-30T10:46:16.976Z,6.30
2024-01-30T10:48:45.796Z,7.43
2024-01-30T10:51:13.505Z,7.60
2024-01-30T10:53:40.669Z,6.03
2024-01-30T10:56:07.480Z,5.57
2024-01-30T10:58:34.111Z,6.55
2024-01-30T11:01:01.058Z,5.72
2024-01-30T11:03:27.909Z,6.35
2024-01-30T11:05:54.423Z,7.22
2024-01-30T11:08:26.924Z,5.28
2024-01-30T11:10:57.929Z,6.80
2024-01-30T11:13:31.304Z,5.82
2024-01-30T11:16:07.417Z,6.13
2024-01-30T11:18:34.646Z,7.85
2024-01-30T11:21:03.055Z,7.28
2024-01-30T11:23:30.163Z,12.00
2024-01-30T11:25:57.762Z,7.65
2024-01-30T11:28:24.703Z,10.40
2024-01-30T11:30:54.093Z,9.23
2024-01-30T11:33:34.936Z,8.15
2024-01-30T11:36:03.138Z,6.18
2024-01-30T11:38:30.153Z,7.78
2024-01-30T11:40:58.441Z,9.48
2024-01-30T11:43:25.359Z,8.43
2024-01-30T11:45:52.874Z,10.18
2024-01-30T11:48:19.640Z,9.43
2024-01-30T11:50:46.474Z,6.90
2024-01-30T11:53:13.033Z,9.52
2024-01-30T11:55:39.897Z,8.52
2024-01-30T11:58:06.787Z,7.55
2024-01-30T12:00:35.131Z,9.00
2024-01-30T12:03:03.151Z,11.43
2024-01-30T12:05:30.855Z,9.73
2024-01-30T12:10:29.078Z,9.00
2024-01-30T12:12:56.060Z,7.22
2024-01-30T12:15:23.343Z,6.38
2024-01-30T12:17:50.094Z,10.52
2024-01-30T12:20:20.667Z,9.63
2024-01-30T12:22:51.378Z,7.47
2024-01-30T12:25:19.452Z,8.68
2024-01-30T12:27:52.638Z,11.48
2024-01-30T12:30:21.424Z,8.50
2024-01-30T12:32:51.106Z,8.15
2024-01-30T12:35:21.142Z,6.75
2024-01-30T12:37:49.633Z,7.78
2024-01-30T12:40:16.711Z,5.88
2024-01-30T12:42:44.363Z,7.60
2024-01-30T12:45:11.277Z,8.77
2024-01-30T12:47:38.911Z,7.35
2024-01-30T12:50:06.139Z,7.80
2024-01-30T12:52:32.816Z,9.32
2024-01-30T12:54:59.443Z,7.60
2024-01-30T12:57:26.406Z,6.00
2024-01-30T12:59:53.077Z,8.30
2024-01-30T13:02:19.944Z,7.75
2024-01-30T13:04:49.938Z,7.95
2024-01-30T13:07:17.268Z,6.63
2024-01-30T13:09:43.852Z,8.68
2024-01-30T13:12:10.459Z,7.75
2024-01-30T13:14:36.977Z,10.52
2024-01-30T13:17:04.570Z,10.48
2024-01-30T13:19:31.249Z,9.18
2024-01-30T13:21:57.968Z,8.43
2024-01-30T13:24:24.580Z,8.38
2024-01-30T13:26:51.498Z,8.27
2024-01-30T13:29:18.138Z,8.70
2024-01-30T13:31:45.591Z,8.27
2024-01-30T13:34:12.475Z,10.45
2024-01-30T13:36:39.625Z,7.82
2024-01-30T13:39:10.067Z,8.32
2024-01-30T13:41:36.753Z,8.68
2024-01-30T13:44:04.508Z,10.70
2024-01-30T13:46:32.091Z,10.40
2024-01-30T13:48:58.813Z,7.18
2024-01-30T13:51:25.461Z,8.65
2024-01-30T13:53:51.978Z,8.25
2024-01-30T13:56:18.614Z,10.13
2024-01-30T13:58:45.867Z,7.65
2024-01-30T14:01:12.597Z,10.13
2024-01-30T14:03:39.162Z,9.95
2024-01-30T14:06:06.110Z,7.90
2024-01-30T14:08:32.951Z,7.20
2024-01-30T14:10:59.486Z,10.93
2024-01-30T14:13:26.563Z,9.63
2024-01-30T14:15:53.842Z,7.47
2024-01-30T14:18:20.790Z,9.45
2024-01-30T14:20:47.385Z,9.98
2024-01-30T14:23:14.122Z,6.50
2024-01-30T14:25:40.746Z,8.65
2024-01-30T14:28:08.228Z,7.70
2024-01-30T14:33:01.489Z,8.25
2024-01-30T14:35:28.425Z,8.43
2024-01-30T14:37:55.116Z,8.38
2024-01-30T14:40:22.410Z,9.57
2024-01-30T14:42:49.366Z,11.23
2024-01-30T14:45:17.136Z,8.43
2024-01-30T14:50:10.952Z,9.57
2024-01-30T14:52:38.500Z,7.80
2024-01-30T14:57:32.134Z,10.23
2024-01-30T14:59:58.702Z,9.65
2024-01-30T15:02:25.274Z,8.13
2024-01-30T15:04:52.229Z,6.93
2024-01-30T15:07:25.447Z,6.55
2024-01-30T15:09:59.932Z,8.48
2024-01-30T15:12:26.873Z,7.82
2024-01-30T15:14:54.620Z,8.70
2024-01-30T15:19:49.283Z,10.35
2024-01-30T15:22:15.926Z,11.93
2024-01-30T15:24:42.438Z,10.00
2024-01-30T15:27:09.222Z,9.65
2024-01-30T15:29:35.920Z,9.40
2024-01-30T15:32:02.621Z,10.32
2024-01-30T15:34:31.418Z,8.93
2024-01-30T15:36:58.033Z,10.93
2024-01-30T15:39:26.895Z,7.32
2024-01-30T15:41:54.164Z,9.68
2024-01-30T15:44:20.744Z,9.07
2024-01-30T15:46:47.241Z,7.78
2024-01-30T15:49:14.098Z,8.60
2024-01-30T15:51:40.769Z,8.18
2024-01-30T15:54:07.468Z,8.07
2024-01-30T15:56:34.159Z,13.65
2024-01-30T15:59:00.917Z,6.40
2024-01-30T16:01:27.553Z,9.55
2024-01-30T16:03:54.214Z,10.93
2024-01-30T16:06:20.951Z,8.73
2024-01-30T16:08:47.545Z,10.05
2024-01-30T16:11:18.016Z,12.75
2024-01-30T16:13:44.614Z,9.55
2024-01-30T16:16:11.207Z,8.20
2024-01-30T16:18:37.764Z,13.00
2024-01-30T16:21:04.412Z,12.95
2024-01-30T16:23:31.134Z,12.32
2024-01-30T16:25:58.893Z,10.18
2024-01-30T16:28:28.414Z,14.25
2024-01-30T16:30:55.059Z,17.52
2024-01-30T16:33:22.447Z,12.55
2024-01-30T16:35:52.012Z,16.45
2024-01-30T16:38:19.673Z,9.60
2024-01-30T16:40:46.315Z,11.77
2024-01-30T16:43:13.493Z,11.35
2024-01-30T16:45:40.966Z,13.35
2024-01-30T16:48:11.491Z,11.25
2024-01-30T16:50:39.233Z,11.95
2024-01-30T16:53:05.901Z,12.90
2024-01-30T16:55:34.756Z,13.68
2024-01-30T16:58:08.402Z,13.68
2024-01-30T17:00:40.861Z,14.85
2024-01-30T17:03:10.576Z,17.85
2024-01-30T17:05:42.456Z,12.55
2024-01-30T17:08:27.099Z,14.30
2024-01-30T17:10:54.253Z,12.65
2024-01-30T17:13:38.147Z,14.90
2024-01-30T17:16:11.750Z,13.55
2024-01-30T17:21:06.642Z,10.50
2024-01-30T17:23:38.135Z,8.38
2024-01-30T17:26:05.292Z,8.43
2024-01-30T17:28:32.297Z,10.38
2024-01-30T17:30:59.076Z,7.82
2024-01-30T17:33:25.861Z,8.95
2024-01-30T17:38:39.608Z,8.57
2024-01-30T17:41:12.183Z,8.25
2024-01-30T17:43:54.747Z,9.35
2024-01-30T17:46:37.341Z,8.88
2024-01-30T17:49:08.280Z,7.72
2024-01-30T17:51:38.157Z,8.38
2024-01-30T17:54:05.210Z,8.93
2024-01-30T17:56:31.930Z,7.55
2024-01-30T17:58:58.542Z,8.52
2024-01-30T18:01:25.591Z,9.30
2024-01-30T18:03:56.641Z,10.20
2024-01-30T18:06:23.484Z,10.68
2024-01-30T18:08:50.512Z,10.40
2024-01-30T18:11:17.071Z,10.68
2024-01-30T18:13:43.847Z,10.32
2024-01-30T18:16:11.583Z,10.25
2024-01-30T18:18:38.667Z,9.55
2024-01-30T18:21:05.404Z,10.15
2024-01-30T18:23:34.076Z,9.25
2024-01-30T18:26:01.459Z,11.00
2024-01-30T18:28:28.583Z,8.27
2024-01-30T18:30:57.341Z,8.00
2024-01-30T18:33:25.139Z,8.45
2024-01-30T18:35:51.883Z,8.85
2024-01-30T18:38:20.187Z,10.00
2024-01-30T18:40:46.898Z,10.23
2024-01-30T18:43:13.584Z,10.50
2024-01-30T18:45:40.244Z,9.60
2024-01-30T18:48:07.131Z,8.88
2024-01-30T18:50:34.507Z,9.82
2024-01-30T18:53:01.112Z,9.55
2024-01-30T18:55:27.756Z,10.25
2024-01-30T18:57:54.380Z,10.18
2024-01-30T19:00:21.153Z,6.57
2024-01-30T19:02:47.930Z,11.45
2024-01-30T19:05:14.601Z,11.85
2024-01-30T19:07:41.257Z,10.80
2024-01-30T19:10:09.236Z,9.18
2024-01-30T19:12:37.644Z,11.95
2024-01-30T19:15:05.375Z,8.38
2024-01-30T19:17:31.907Z,10.98
2024-01-30T19:19:58.490Z,8.77
2024-01-30T19:22:25.122Z,10.30
2024-01-30T19:24:51.809Z,9.65
2024-01-30T19:27:18.398Z,9.55
2024-01-30T19:29:44.925Z,9.27
2024-01-30T19:32:11.523Z,8.68
2024-01-30T19:34:38.508Z,10.43
2024-01-30T19:37:05.198Z,11.25
2024-01-30T19:39:31.799Z,11.48
2024-01-30T19:41:59.154Z,8.95
2024-01-30T19:44:25.696Z,9.38
2024-01-30T19:46:52.364Z,10.20
2024-01-30T19:49:19.555Z,9.02
2024-01-30T19:51:46.202Z,7.40
2024-01-30T19:54:15.636Z,10.13
2024-01-30T19:56:42.319Z,10.02
2024-01-30T19:59:08.884Z,9.10
2024-01-30T20:01:35.530Z,7.93
2024-01-30T20:04:02.987Z,9.73
2024-01-30T20:06:30.489Z,8.88
2024-01-30T20:08:57.136Z,9.05
2024-01-30T20:11:23.770Z,8.75
2024-01-30T20:13:50.500Z,9.65
2024-01-30T20:16:17.094Z,9.40
2024-01-30T20:18:44.004Z,12.98
2024-01-30T20:21:10.556Z,9.88
2024-01-30T20:23:37.795Z,9.40
2024-01-30T20:26:04.662Z,9.95
2024-01-30T20:28:33.111Z,10.32
2024-01-30T20:31:00.308Z,9.93
2024-01-30T20:33:27.509Z,8.30
2024-01-30T20:35:54.114Z,9.55
2024-01-30T20:38:20.799Z,9.27
2024-01-30T20:40:47.414Z,8.20
2024-01-30T20:43:14.134Z,11.00
2024-01-30T20:45:40.791Z,12.95
2024-01-30T20:48:08.171Z,11.27
2024-01-30T20:50:34.790Z,10.60
2024-01-30T20:53:01.472Z,9.57
2024-01-30T20:55:28.119Z,11.90
2024-01-30T20:57:54.788Z,10.80
2024-01-30T21:00:21.560Z,10.50
2024-01-30T21:02:48.191Z,12.65
2024-01-30T21:05:15.047Z,9.68
2024-01-30T21:07:41.776Z,8.98
2024-01-30T21:10:09.611Z,8.27
2024-01-30T21:15:04.824Z,10.95
2024-01-30T21:17:31.409Z,10.55
2024-01-30T21:19:59.045Z,10.90
2024-01-30T21:22:25.709Z,10.43
2024-01-30T21:24:52.410Z,15.23
2024-01-30T21:27:19.031Z,16.42
2024-01-30T21:29:45.643Z,10.63
2024-01-30T21:32:16.401Z,12.43
2024-01-30T21:34:43.184Z,8.75
2024-01-30T21:37:09.755Z,10.30
2024-01-30T21:39:38.320Z,12.82
2024-01-30T21:42:05.207Z,10.82
2024-01-30T21:44:31.778Z,13.23
2024-01-30T21:46:58.720Z,13.65
2024-01-30T21:49:25.430Z,14.40
2024-01-30T21:51:52.743Z,12.20
2024-01-30T21:54:19.542Z,12.65
2024-01-30T21:56:46.262Z,11.10
2024-01-30T21:59:13.708Z,12.23
2024-01-30T22:01:40.402Z,11.50
2024-01-30T22:04:07.868Z,12.15
2024-01-30T22:06:35.115Z,8.40
2024-01-30T22:09:01.680Z,10.98
2024-01-30T22:11:28.297Z,12.40
2024-01-30T22:13:55.406Z,10.30
2024-01-30T22:16:22.067Z,10.70
2024-01-30T22:18:48.609Z,10.27
2024-01-30T22:21:17.057Z,11.18
2024-01-30T22:23:44.398Z,10.60
2024-01-30T22:26:11.174Z,10.50
2024-01-30T22:28:37.812Z,10.88
2024-01-30T22:31:04.667Z,10.27
2024-01-30T22:33:31.248Z,13.10
2024-01-30T22:35:57.889Z,10.90
2024-01-30T22:38:24.379Z,11.73
2024-01-30T22:40:50.928Z,10.43
2024-01-30T22:43:17.469Z,11.27
2024-01-30T22:45:44.261Z,10.98
2024-01-30T22:48:11.322Z,12.32
2024-01-30T22:50:38.033Z,9.63
2024-01-30T22:53:04.751Z,12.77
2024-01-30T22:55:31.552Z,11.95
2024-01-30T22:57:59.181Z,11.27
2024-01-30T23:00:29.170Z,11.98
2024-01-30T23:02:57.430Z,11.55
2024-01-30T23:05:24.719Z,11.93
2024-01-30T23:07:51.693Z,14.45
2024-01-30T23:10:21.299Z,11.45
2024-01-30T23:12:47.891Z,11.32
2024-01-30T23:15:14.528Z,11.35
2024-01-30T23:17:41.329Z,10.68
2024-01-30T23:20:11.528Z,11.65
2024-01-30T23:22:38.189Z,11.85
2024-01-30T23:25:05.713Z,11.25
2024-01-30T23:27:32.390Z,10.60
2024-01-30T23:29:58.876Z,9.68
2024-01-30T23:32:30.256Z,10.45
2024-01-30T23:35:01.826Z,8.38
2024-01-30T23:37:28.703Z,9.90
2024-01-30T23:39:55.256Z,11.75
2024-01-30T23:42:21.779Z,12.57
2024-01-30T23:44:48.478Z,10.73
2024-01-30T23:47:15.534Z,12.15
2024-01-30T23:49:42.253Z,11.18
2024-01-30T23:52:09.175Z,10.25
2024-01-30T23:54:35.750Z,11.63
2024-01-30T23:57:02.778Z,10.25
2024-01-30T23:59:29.460Z,9.93
